• Join FlightAware (Why Join?)
  • Login
  • US Flag 
04:50AM EDT


 

Airport Tracker/Info


-or-


 

Live Flight TrackerFlight Track Log ✈ N762NC ✈ 17-Oct-2013 ✈ KGSP - KATL

Flight Track Log - Related Links

Times and Time Zones

All times are in EDT time to prevent confusion due to time zone crossing. See the N762NC flight status page for this flight to view local times or setup timezone preferences in your user account.

Time Position Orientation Groundspeed Altitude Reporting Facility
EDT Latitude Longitude Course Direction KTS MPH feet Rate Location/Type
04:05PM 34.8108 -82.3008 273° West 208 239 4,500  Level Atlanta Center
04:06PM 34.8286 -82.3814 285° West 250 288 6,700 2,160 Climbing Atlanta Center
04:07PM 34.8483 -82.4519 289° West 250 288 8,900 1,920 Climbing Atlanta Center
04:08PM 34.7146 -82.5451 261° West  Level Estimated
04:08PM 34.8203 -82.5383 248° West 244 281 10,600  Level Atlanta Center
04:09PM 34.6783 -82.6101 252° West  Level Estimated
04:09PM 34.7817 -82.6275 242° Southwest 266 306 12,400  Level Atlanta Center
04:10PM 34.6814 -82.6887 273° West  Level FlightAware Approximate
04:10PM 34.7472 -82.7319 248° West 301 346 14,200  Level Atlanta Center
04:11PM 34.7253 -82.8308 255° West 315 362 20,000 1,980 Climbing Atlanta Center
04:12PM 34.7036 -82.9422 257° West 327 376 18,200 -240 Descending Atlanta Center
04:13PM 34.6583 -83.0389 240° Southwest 327 376 19,600 900 Climbing Atlanta Center
04:14PM 34.6217 -83.1403 246° West 343 395 20,000 180 Climbing Atlanta Center
04:15PM 34.5806 -83.2417 244° Southwest 337 388 20,000  Level Atlanta Center
04:16PM 34.5353 -83.3303 238° Southwest 322 371 20,000  Level Atlanta Center
04:17PM 34.4711 -83.4189 229° Southwest 337 388 20,000  Level Atlanta Center
04:18PM 34.4108 -83.4950 226° Southwest 353 406 20,000 -600 Level Atlanta Center
04:19PM 34.3444 -83.5833 228° Southwest 358 412 18,800 -1,560 Descending Atlanta Center
04:20PM 34.2717 -83.6667 223° Southwest 356 410 16,900 -1,920 Descending Atlanta Center
04:21PM 34.2072 -83.7475 226° Southwest 350 403 15,000 1,500 Descending Atlanta Center
04:22PM 34.1425 -83.8203 223° Southwest 332 382 20,000 -1,500 Climbing Atlanta Center
04:23PM 34.0800 -83.8933 224° Southwest 320 368 12,000 -5,100 Descending Atlanta Center
04:24PM 34.0333 -83.9500 225° Southwest 243 280 11,100 -1,380 Descending Atlanta TRACON
04:25PM 33.9500 -83.9500 180° South 276 318 9,600 -1,080 Descending Atlanta TRACON
04:26PM 33.8833 -83.9333 168° South 250 288 9,000 -780 Descending Atlanta TRACON
04:27PM 33.8000 -83.9333 180° South 265 305 8,100 -840 Descending Atlanta TRACON
04:28PM 33.7333 -83.9500 192° South 256 295 7,400 -600 Descending Atlanta TRACON
04:29PM 33.6667 -83.9667 192° South 252 290 7,000 -600 Descending Atlanta TRACON
04:30PM 33.6333 -84.0333 239° Southwest 241 277 6,200 -540 Descending Atlanta TRACON
04:31PM 33.6333 -84.1000 270° West 192 221 6,000 -540 Descending Atlanta TRACON
04:32PM 33.6333 -84.1500 270° West 186 214 5,200 -900 Descending Atlanta TRACON
04:33PM 33.6333 -84.2167 270° West 182 209 4,200 -1,020 Descending Atlanta TRACON
04:34PM 33.6333 -84.2833 270° West 177 204 3,200 -960 Descending Atlanta TRACON
04:35PM 33.6333 -84.3333 270° West 162 186 2,300 -840 Descending Atlanta TRACON
04:36PM 33.6333 -84.3833 270° West 130 150 1,600 -720 Descending Atlanta TRACON